createdAt,value
2019-04-27T00:00:11.405Z,567
2019-04-27T00:01:13.685Z,569
2019-04-27T00:02:16.067Z,562
2019-04-27T00:03:18.287Z,563
2019-04-27T00:04:20.477Z,554
2019-04-27T00:05:22.849Z,555
2019-04-27T00:06:25.122Z,553
2019-04-27T00:07:27.315Z,553
2019-04-27T00:08:29.572Z,551
2019-04-27T00:09:31.931Z,552
2019-04-27T00:10:34.113Z,558
2019-04-27T00:12:38.771Z,554
2019-04-27T00:13:40.946Z,557
2019-04-27T00:14:43.219Z,559
2019-04-27T00:15:45.499Z,553
2019-04-27T00:16:47.779Z,569
2019-04-27T00:17:50.118Z,564
2019-04-27T00:18:52.490Z,560
2019-04-27T00:19:54.656Z,547
2019-04-27T00:20:56.939Z,540
2019-04-27T00:21:59.223Z,564
2019-04-27T00:23:01.556Z,564
2019-04-27T00:24:03.752Z,558
2019-04-27T00:25:05.936Z,554
2019-04-27T00:26:08.604Z,566
2019-04-27T00:27:10.498Z,558
2019-04-27T00:28:12.848Z,572
2019-04-27T00:29:15.005Z,572
2019-04-27T00:30:19.496Z,575
2019-04-27T00:31:19.645Z,569
2019-04-27T00:32:21.950Z,570
2019-04-27T00:33:24.110Z,574
2019-04-27T00:34:26.584Z,578
2019-04-27T00:35:28.797Z,576
2019-04-27T00:36:31.015Z,572
2019-04-27T00:37:33.307Z,586
2019-04-27T00:38:35.575Z,585
2019-04-27T00:39:37.853Z,587
2019-04-27T00:40:40.110Z,583
2019-04-27T00:41:42.499Z,586
2019-04-27T00:42:44.651Z,587
2019-04-27T00:43:46.934Z,594
2019-04-27T00:44:49.571Z,593
2019-04-27T00:45:51.539Z,607
2019-04-27T00:46:53.870Z,603
2019-04-27T00:47:56.082Z,607
2019-04-27T00:48:58.304Z,610
2019-04-27T00:50:00.600Z,607
2019-04-27T00:51:02.856Z,580
2019-04-27T00:52:05.250Z,598
2019-04-27T00:53:07.411Z,596
2019-04-27T00:54:09.698Z,600
2019-04-27T00:55:11.985Z,599
2019-04-27T00:56:14.299Z,599
2019-04-27T00:57:16.542Z,691
2019-04-27T00:58:18.833Z,583
2019-04-27T00:59:21.029Z,590
2019-04-27T01:00:23.383Z,589
2019-04-27T01:01:25.580Z,600
2019-04-27T01:02:27.830Z,599
2019-04-27T01:03:30.229Z,604
2019-04-27T01:04:32.437Z,592
2019-04-27T01:05:34.656Z,594
2019-04-27T01:06:36.976Z,603
2019-04-27T01:07:39.200Z,602
2019-04-27T01:08:41.484Z,608
2019-04-27T01:09:43.736Z,617
2019-04-27T01:10:46.058Z,595
2019-04-27T01:11:48.422Z,605
2019-04-27T01:12:50.593Z,595
2019-04-27T01:13:52.883Z,610
2019-04-27T01:14:55.103Z,606
2019-04-27T01:15:57.483Z,606
2019-04-27T01:16:59.703Z,612
2019-04-27T01:18:01.935Z,602
2019-04-27T01:19:04.252Z,593
2019-04-27T01:20:06.593Z,597
2019-04-27T01:21:11.758Z,602
2019-04-27T01:22:11.038Z,603
2019-04-27T01:23:13.289Z,596
2019-04-27T01:24:15.578Z,595
2019-04-27T01:25:17.853Z,613
2019-04-27T01:26:20.156Z,618
2019-04-27T01:27:22.382Z,618
2019-04-27T01:28:24.656Z,616
2019-04-27T01:29:26.912Z,616
2019-04-27T01:30:29.217Z,608
2019-04-27T01:31:31.504Z,609
2019-04-27T01:32:33.741Z,609
2019-04-27T01:33:36.041Z,604
2019-04-27T01:34:38.274Z,614
2019-04-27T01:35:40.571Z,612
2019-04-27T01:36:42.908Z,621
2019-04-27T01:37:45.193Z,620
2019-04-27T01:38:47.531Z,609
2019-04-27T01:39:49.750Z,616
2019-04-27T01:40:52.212Z,614
2019-04-27T01:41:54.354Z,613
2019-04-27T01:42:56.567Z,615
2019-04-27T01:44:04.155Z,603
2019-04-27T01:45:01.112Z,609
2019-04-27T01:46:03.585Z,610
2019-04-27T01:47:05.843Z,627
2019-04-27T01:49:10.199Z,616
2019-04-27T01:50:12.450Z,647
2019-04-27T01:51:14.731Z,628
2019-04-27T01:52:16.998Z,630
2019-04-27T01:53:19.346Z,635
2019-04-27T01:54:21.586Z,698
2019-04-27T01:55:24.127Z,659
2019-04-27T01:56:26.299Z,644
2019-04-27T01:57:28.587Z,641
2019-04-27T01:58:30.770Z,632
2019-04-27T01:59:34.769Z,637
2019-04-27T02:00:35.345Z,653
2019-04-27T02:01:37.546Z,658
2019-04-27T02:02:39.885Z,642
2019-04-27T02:03:42.145Z,638
2019-04-27T02:04:44.362Z,640
2019-04-27T02:05:46.641Z,659
2019-04-27T02:06:48.912Z,637
2019-04-27T02:07:51.856Z,641
2019-04-27T02:08:53.539Z,639
2019-04-27T02:09:55.769Z,643
2019-04-27T02:10:58.016Z,652
2019-04-27T02:12:00.275Z,655
2019-04-27T02:13:02.652Z,647
2019-04-27T02:14:04.900Z,638
2019-04-27T02:15:07.252Z,646
2019-04-27T02:16:09.672Z,653
2019-04-27T02:17:11.639Z,649
2019-04-27T02:18:13.921Z,646
2019-04-27T02:19:16.217Z,755
2019-04-27T02:20:18.481Z,656
2019-04-27T02:21:20.770Z,670
2019-04-27T02:22:23.009Z,648
2019-04-27T02:23:25.274Z,631
2019-04-27T02:24:27.569Z,645
2019-04-27T02:25:29.853Z,636
2019-04-27T02:26:32.079Z,641
2019-04-27T02:27:34.360Z,635
2019-04-27T02:28:36.646Z,647
2019-04-27T02:29:38.920Z,638
2019-04-27T02:30:41.178Z,640
2019-04-27T02:31:43.473Z,637
2019-04-27T02:32:45.763Z,643
2019-04-27T02:33:48.043Z,642
2019-04-27T02:34:50.336Z,644
2019-04-27T02:35:52.545Z,634
2019-04-27T02:36:54.808Z,640
2019-04-27T02:37:57.079Z,637
2019-04-27T02:38:59.488Z,679
2019-04-27T02:40:01.644Z,647
2019-04-27T02:41:03.917Z,641
2019-04-27T02:42:06.271Z,646
2019-04-27T02:43:08.453Z,635
2019-04-27T02:44:10.727Z,638
2019-04-27T02:45:13.000Z,657
2019-04-27T02:46:15.277Z,654
2019-04-27T02:47:17.713Z,643
2019-04-27T02:48:20.021Z,665
2019-04-27T02:49:22.252Z,649
2019-04-27T02:50:24.781Z,649
2019-04-27T02:51:26.887Z,652
2019-04-27T02:52:29.177Z,659
2019-04-27T02:53:31.629Z,656
2019-04-27T02:54:33.602Z,644
2019-04-27T02:55:36.128Z,645
2019-04-27T02:56:38.179Z,648
2019-04-27T02:57:40.524Z,646
2019-04-27T02:58:42.812Z,654
2019-04-27T02:59:45.090Z,649
2019-04-27T03:00:47.380Z,644
2019-04-27T03:01:49.716Z,630
2019-04-27T03:02:51.887Z,655
2019-04-27T03:03:54.149Z,668
2019-04-27T03:04:56.433Z,705
2019-04-27T03:05:58.686Z,669
2019-04-27T03:07:00.962Z,669
2019-04-27T03:08:03.259Z,648
2019-04-27T03:09:05.536Z,664
2019-04-27T03:10:07.831Z,677
2019-04-27T03:11:10.113Z,651
2019-04-27T03:12:12.424Z,653
2019-04-27T03:13:14.605Z,647
2019-04-27T03:14:16.906Z,643
2019-04-27T03:15:19.311Z,655
2019-04-27T03:16:21.482Z,652
2019-04-27T03:17:23.687Z,673
2019-04-27T03:18:26.011Z,658
2019-04-27T03:19:28.224Z,656
2019-04-27T03:20:30.521Z,663
2019-04-27T03:21:32.775Z,654
2019-04-27T03:22:35.556Z,653
2019-04-27T03:23:37.364Z,657
2019-04-27T03:24:39.970Z,647
2019-04-27T03:25:41.859Z,667
2019-04-27T03:26:44.465Z,674
2019-04-27T03:27:46.401Z,672
2019-04-27T03:28:48.674Z,670
2019-04-27T03:29:50.961Z,676
2019-04-27T03:30:53.275Z,660
2019-04-27T03:31:55.619Z,667
2019-04-27T03:32:57.801Z,677
2019-04-27T03:34:00.155Z,678
2019-04-27T03:35:02.348Z,699
2019-04-27T03:36:04.688Z,712
2019-04-27T03:37:06.864Z,700
2019-04-27T03:38:09.139Z,696
2019-04-27T03:39:11.417Z,686
2019-04-27T03:40:13.895Z,664
2019-04-27T03:41:15.976Z,679
2019-04-27T03:42:18.315Z,680
2019-04-27T03:43:20.581Z,686
2019-04-27T03:44:22.851Z,696
2019-04-27T03:45:25.138Z,678
2019-04-27T03:46:27.431Z,689
2019-04-27T03:47:29.625Z,679
2019-04-27T03:48:31.907Z,681
2019-04-27T03:49:34.125Z,712
2019-04-27T03:50:36.599Z,709
2019-04-27T03:51:38.734Z,681
2019-04-27T03:52:40.976Z,667
2019-04-27T03:53:43.237Z,678
2019-04-27T03:54:45.691Z,689
2019-04-27T03:56:50.175Z,681
2019-04-27T03:57:52.403Z,691
2019-04-27T03:58:54.663Z,678
2019-04-27T03:59:56.966Z,678
2019-04-27T04:00:59.258Z,671
2019-04-27T04:02:01.513Z,672
2019-04-27T04:03:03.783Z,698
2019-04-27T04:04:06.043Z,687
2019-04-27T04:05:08.318Z,700
2019-04-27T04:06:10.591Z,676
2019-04-27T04:07:13.126Z,687
2019-04-27T04:09:17.404Z,698
2019-04-27T04:10:19.675Z,712
2019-04-27T04:11:21.985Z,707
2019-04-27T04:12:24.218Z,692
2019-04-27T04:13:26.583Z,704
2019-04-27T04:14:28.794Z,706
2019-04-27T04:15:31.253Z,706
2019-04-27T04:16:33.387Z,712
2019-04-27T04:17:35.577Z,717
2019-04-27T04:18:37.860Z,714
2019-04-27T04:19:40.935Z,715
2019-04-27T04:20:42.408Z,714
2019-04-27T04:21:44.758Z,720
2019-04-27T04:22:46.932Z,704
2019-04-27T04:23:51.617Z,726
2019-04-27T04:24:51.517Z,694
2019-04-27T04:25:54.491Z,694
2019-04-27T04:26:56.128Z,699
2019-04-27T04:27:58.331Z,698
2019-04-27T04:29:04.157Z,694
2019-04-27T04:30:02.845Z,703
2019-04-27T04:31:05.177Z,732
2019-04-27T04:32:07.380Z,699
2019-04-27T04:33:09.665Z,704
2019-04-27T04:34:12.085Z,684
2019-04-27T04:35:14.199Z,702
2019-04-27T04:36:16.479Z,687
2019-04-27T04:37:18.764Z,705
2019-04-27T04:38:21.066Z,694
2019-04-27T04:39:23.335Z,726
2019-04-27T04:40:25.588Z,715
2019-04-27T04:41:27.954Z,705
2019-04-27T04:42:30.133Z,695
2019-04-27T04:43:32.411Z,698
2019-04-27T04:44:34.692Z,711
2019-04-27T04:45:37.017Z,683
2019-04-27T04:46:39.240Z,701
2019-04-27T04:47:41.536Z,702
2019-04-27T04:48:43.795Z,697
2019-04-27T04:49:46.061Z,698
2019-04-27T04:50:48.319Z,697
2019-04-27T04:51:50.921Z,709
2019-04-27T04:52:52.903Z,706
2019-04-27T04:53:55.130Z,708
2019-04-27T04:54:57.504Z,691
2019-04-27T04:56:00.191Z,694
2019-04-27T04:57:02.194Z,698
2019-04-27T04:58:04.526Z,699
2019-04-27T04:59:06.698Z,706
2019-04-27T05:00:08.904Z,695
2019-04-27T05:01:11.367Z,695
2019-04-27T05:02:13.481Z,695
2019-04-27T05:03:15.678Z,682
2019-04-27T05:04:17.969Z,682
2019-04-27T05:05:20.286Z,690
2019-04-27T05:06:22.614Z,689
2019-04-27T05:07:24.804Z,682
2019-04-27T05:08:27.054Z,685
2019-04-27T05:09:29.330Z,692
2019-04-27T05:10:31.693Z,667
2019-04-27T05:11:33.875Z,661
2019-04-27T05:12:36.152Z,695
2019-04-27T05:13:38.418Z,703
2019-04-27T05:14:43.915Z,683
2019-04-27T05:15:43.093Z,689
2019-04-27T05:16:45.229Z,686
2019-04-27T05:17:47.589Z,693
2019-04-27T05:18:49.970Z,692
2019-04-27T05:19:52.111Z,694
2019-04-27T05:20:54.319Z,691
2019-04-27T05:21:56.602Z,688
2019-04-27T05:22:58.922Z,688
2019-04-27T05:24:01.150Z,706
2019-04-27T05:25:03.560Z,702
2019-04-27T05:26:05.854Z,697
2019-04-27T05:27:08.035Z,684
2019-04-27T05:28:10.561Z,686
2019-04-27T05:29:12.672Z,687
2019-04-27T05:30:14.813Z,693
2019-04-27T05:31:19.336Z,715
2019-04-27T05:33:21.642Z,717
2019-04-27T05:34:24.052Z,699
2019-04-27T05:35:26.253Z,708
2019-04-27T05:36:28.457Z,707
2019-04-27T05:37:30.746Z,705
2019-04-27T05:38:33.004Z,709
2019-04-27T05:39:35.392Z,686
2019-04-27T05:40:37.557Z,687
2019-04-27T05:41:39.825Z,688
2019-04-27T05:42:42.075Z,704
2019-04-27T05:43:44.482Z,713
2019-04-27T05:45:48.913Z,702
2019-04-27T05:46:51.195Z,718
2019-04-27T05:47:53.537Z,712
2019-04-27T05:48:55.792Z,723
2019-04-27T05:49:58.178Z,690
2019-04-27T05:51:00.439Z,693
2019-04-27T05:52:02.564Z,690
2019-04-27T05:53:04.829Z,724
2019-04-27T05:54:07.130Z,708
2019-04-27T05:55:09.377Z,699
2019-04-27T05:56:11.761Z,691
2019-04-27T05:57:13.950Z,694
2019-04-27T05:58:16.407Z,747
2019-04-27T05:59:18.563Z,740
2019-04-27T06:00:20.855Z,699
2019-04-27T06:01:23.098Z,697
2019-04-27T06:02:25.396Z,699
2019-04-27T06:03:27.637Z,699
2019-04-27T06:04:30.038Z,718
2019-04-27T06:05:32.284Z,719
2019-04-27T06:06:34.594Z,726
2019-04-27T06:07:36.798Z,838
2019-04-27T06:08:39.023Z,715
2019-04-27T06:09:41.288Z,714
2019-04-27T06:10:43.690Z,724
2019-04-27T06:11:45.839Z,705
2019-04-27T06:12:48.316Z,701
2019-04-27T06:13:50.459Z,695
2019-04-27T06:14:52.651Z,711
2019-04-27T06:15:54.918Z,718
2019-04-27T06:16:57.253Z,719
2019-04-27T06:17:59.490Z,715
2019-04-27T06:19:01.814Z,709
2019-04-27T06:20:04.056Z,769
2019-04-27T06:21:06.352Z,862
2019-04-27T06:22:08.628Z,716
2019-04-27T06:23:10.899Z,690
2019-04-27T06:24:14.524Z,698
2019-04-27T06:25:15.391Z,711
2019-04-27T06:26:17.764Z,660
2019-04-27T06:28:22.202Z,747
2019-04-27T06:29:24.472Z,761
2019-04-27T06:30:26.767Z,625
2019-04-27T06:31:29.020Z,640
2019-04-27T06:32:31.297Z,621
2019-04-27T06:33:33.623Z,650
2019-04-27T06:34:35.847Z,656
2019-04-27T06:35:38.115Z,644
2019-04-27T06:36:40.439Z,659
2019-04-27T06:38:44.932Z,700
2019-04-27T06:39:47.224Z,620
2019-04-27T06:40:49.897Z,703
2019-04-27T06:41:51.850Z,671
2019-04-27T06:42:54.027Z,773
2019-04-27T06:43:56.310Z,670
2019-04-27T06:44:58.623Z,619
2019-04-27T06:47:06.935Z,681
2019-04-27T06:48:05.424Z,623
2019-04-27T06:49:07.696Z,624
2019-04-27T06:51:12.224Z,628
2019-04-27T06:52:14.717Z,601
2019-04-27T06:53:16.783Z,819
2019-04-27T06:54:19.081Z,656
2019-04-27T06:55:21.763Z,644
2019-04-27T06:56:23.661Z,619
2019-04-27T06:57:27.543Z,658
2019-04-27T06:58:28.172Z,646
2019-04-27T06:59:30.445Z,635
2019-04-27T07:00:32.706Z,633
2019-04-27T07:01:35.003Z,537
2019-04-27T07:02:37.289Z,601
2019-04-27T07:03:39.533Z,593
2019-04-27T07:04:41.826Z,548
2019-04-27T07:05:44.136Z,548
2019-04-27T07:06:46.360Z,535
2019-04-27T07:07:48.704Z,545
2019-04-27T07:08:50.894Z,522
2019-04-27T07:09:53.338Z,538
2019-04-27T07:10:55.496Z,534
2019-04-27T07:11:57.732Z,505
2019-04-27T07:12:59.998Z,490
2019-04-27T07:14:02.363Z,507
2019-04-27T07:15:04.545Z,496
2019-04-27T07:16:06.819Z,498
2019-04-27T07:17:09.185Z,497
2019-04-27T07:18:11.378Z,499
2019-04-27T07:19:13.633Z,463
2019-04-27T07:20:15.922Z,442
2019-04-27T07:21:18.244Z,486
2019-04-27T07:22:20.512Z,492
2019-04-27T07:23:22.725Z,468
2019-04-27T07:24:25.026Z,465
2019-04-27T07:25:32.758Z,457
2019-04-27T07:26:29.954Z,510
2019-04-27T07:27:31.849Z,510
2019-04-27T07:28:34.197Z,451
2019-04-27T07:29:36.438Z,498
2019-04-27T07:30:38.757Z,460
2019-04-27T07:31:41.162Z,506
2019-04-27T07:32:43.254Z,490
2019-04-27T07:33:45.492Z,452
2019-04-27T07:34:47.805Z,474
2019-04-27T07:36:52.283Z,462
2019-04-27T07:37:54.571Z,483
2019-04-27T07:38:56.922Z,435
2019-04-27T07:39:59.175Z,512
2019-04-27T07:41:01.378Z,440
2019-04-27T07:42:03.709Z,450
2019-04-27T07:43:05.925Z,519
2019-04-27T07:44:10.428Z,469
2019-04-27T07:45:10.469Z,461
2019-04-27T07:46:12.821Z,525
2019-04-27T07:47:15.123Z,490
2019-04-27T07:48:17.301Z,462
2019-04-27T07:49:19.610Z,454
2019-04-27T07:50:21.880Z,487
2019-04-27T07:51:24.266Z,451
2019-04-27T07:52:26.481Z,452
2019-04-27T07:53:28.749Z,459
2019-04-27T07:54:31.112Z,496
2019-04-27T07:55:33.358Z,455
2019-04-27T07:56:35.632Z,453
2019-04-27T07:57:38.012Z,533
2019-04-27T07:58:40.245Z,467
2019-04-27T07:59:42.571Z,460
2019-04-27T08:00:44.742Z,503
2019-04-27T08:01:47.010Z,469
2019-04-27T08:02:49.461Z,420
2019-04-27T08:03:51.625Z,451
2019-04-27T08:04:53.875Z,454
2019-04-27T08:05:56.143Z,450
2019-04-27T08:06:58.526Z,449
2019-04-27T08:08:00.742Z,421
2019-04-27T08:09:02.939Z,472
2019-04-27T08:10:05.233Z,422
2019-04-27T08:11:07.629Z,443
2019-04-27T08:12:09.773Z,451
2019-04-27T08:13:12.027Z,419
2019-04-27T08:14:14.349Z,425
2019-04-27T08:15:16.675Z,447
2019-04-27T08:16:18.953Z,479
2019-04-27T08:17:21.321Z,456
2019-04-27T08:18:23.406Z,445
2019-04-27T08:19:25.737Z,413
2019-04-27T08:20:28.077Z,444
2019-04-27T08:21:30.213Z,422
2019-04-27T08:22:32.546Z,467
2019-04-27T08:23:34.743Z,512
2019-04-27T08:24:37.119Z,406
2019-04-27T08:25:39.454Z,453
2019-04-27T08:26:41.576Z,488
2019-04-27T08:27:43.942Z,458
2019-04-27T08:28:46.151Z,435
2019-04-27T08:29:48.629Z,456
2019-04-27T08:30:50.776Z,471
2019-04-27T08:31:53.150Z,526
2019-04-27T08:32:55.377Z,446
2019-04-27T08:33:57.521Z,459
2019-04-27T08:35:04.443Z,450
2019-04-27T08:36:02.031Z,497
2019-04-27T08:37:04.347Z,431
2019-04-27T08:38:06.680Z,513
2019-04-27T08:39:08.859Z,515
2019-04-27T08:40:13.257Z,488
2019-04-27T08:41:13.399Z,476
2019-04-27T08:42:15.785Z,466
2019-04-27T08:43:18.184Z,489
2019-04-27T08:44:20.339Z,504
2019-04-27T08:45:23.195Z,476
2019-04-27T08:46:24.790Z,497
2019-04-27T08:47:27.057Z,501
2019-04-27T08:48:29.465Z,478
2019-04-27T08:49:31.625Z,510
2019-04-27T08:50:34.052Z,473
2019-04-27T08:51:36.340Z,477
2019-04-27T08:52:38.492Z,489
2019-04-27T08:53:40.719Z,486
2019-04-27T08:54:42.985Z,495
2019-04-27T08:55:45.308Z,492
2019-04-27T08:56:47.566Z,484
2019-04-27T08:57:49.878Z,466
2019-04-27T08:58:52.177Z,471
2019-04-27T08:59:54.374Z,472
2019-04-27T09:00:56.656Z,469
2019-04-27T09:01:58.905Z,466
2019-04-27T09:03:01.185Z,481
2019-04-27T09:04:06.389Z,475
2019-04-27T09:05:05.817Z,477
2019-04-27T09:06:08.021Z,439
2019-04-27T09:07:10.317Z,557
2019-04-27T09:08:12.595Z,480
2019-04-27T09:09:15.000Z,478
2019-04-27T09:10:17.109Z,488
2019-04-27T09:11:19.573Z,467
2019-04-27T09:12:21.882Z,476
2019-04-27T09:13:23.929Z,466
2019-04-27T09:14:26.208Z,478
2019-04-27T09:15:28.537Z,488
2019-04-27T09:16:30.763Z,471
2019-04-27T09:17:34.016Z,473
2019-04-27T09:18:35.492Z,473
2019-04-27T09:19:37.574Z,450
2019-04-27T09:20:39.840Z,467
2019-04-27T09:21:42.123Z,460
2019-04-27T09:22:44.428Z,461
2019-04-27T09:23:46.673Z,480
2019-04-27T09:24:48.965Z,462
2019-04-27T09:25:51.216Z,473
2019-04-27T09:26:53.485Z,473
2019-04-27T09:27:58.752Z,476
2019-04-27T09:28:58.201Z,453
2019-04-27T09:30:00.303Z,461
2019-04-27T09:31:02.683Z,467
2019-04-27T09:32:04.854Z,473
2019-04-27T09:33:12.302Z,462
2019-04-27T09:34:09.473Z,455
2019-04-27T09:35:11.673Z,454
2019-04-27T09:36:13.952Z,460
2019-04-27T09:37:16.310Z,458
2019-04-27T09:38:19.185Z,492
2019-04-27T09:39:20.868Z,457
2019-04-27T09:40:23.118Z,462
2019-04-27T09:41:25.306Z,496
2019-04-27T09:42:27.608Z,443
2019-04-27T09:43:33.563Z,462
2019-04-27T09:44:32.122Z,462
2019-04-27T09:45:34.389Z,446
2019-04-27T09:46:36.681Z,451
2019-04-27T09:47:39.246Z,447
2019-04-27T09:48:41.256Z,470
2019-04-27T09:49:43.749Z,464
2019-04-27T09:50:45.886Z,458
2019-04-27T09:51:48.045Z,453
2019-04-27T09:52:50.361Z,463
2019-04-27T09:53:52.727Z,462
2019-04-27T09:54:54.943Z,461
2019-04-27T09:55:57.451Z,449
2019-04-27T09:56:59.506Z,463
2019-04-27T09:58:01.930Z,463
2019-04-27T09:59:05.488Z,487
2019-04-27T10:00:06.570Z,460
2019-04-27T10:01:08.728Z,468
2019-04-27T10:02:11.067Z,456
2019-04-27T10:03:13.497Z,452
2019-04-27T10:04:18.478Z,465
2019-04-27T10:05:17.862Z,455
2019-04-27T10:06:20.075Z,440
2019-04-27T10:07:22.364Z,458
2019-04-27T10:08:24.649Z,449
2019-04-27T10:09:26.954Z,453
2019-04-27T10:10:29.148Z,442
2019-04-27T10:11:31.443Z,448
2019-04-27T10:12:33.831Z,494
2019-04-27T10:13:35.996Z,445
2019-04-27T10:14:38.244Z,484
2019-04-27T10:16:42.839Z,468
2019-04-27T10:17:45.082Z,445
2019-04-27T10:18:47.353Z,428
2019-04-27T10:19:49.662Z,446
2019-04-27T10:20:51.945Z,464
2019-04-27T10:21:54.161Z,498
2019-04-27T10:22:56.449Z,498
2019-04-27T10:23:58.736Z,465
2019-04-27T10:25:04.421Z,473
2019-04-27T10:26:03.507Z,457
2019-04-27T10:27:05.543Z,485
2019-04-27T10:28:07.799Z,446
2019-04-27T10:29:10.081Z,455
2019-04-27T10:30:13.116Z,459
2019-04-27T10:31:14.635Z,449
2019-04-27T10:32:16.970Z,450
2019-04-27T10:33:19.190Z,458
2019-04-27T10:34:21.579Z,427
2019-04-27T10:35:23.735Z,481
2019-04-27T10:36:26.000Z,447
2019-04-27T10:37:28.324Z,476
2019-04-27T10:38:30.580Z,447
2019-04-27T10:39:32.814Z,460
2019-04-27T10:40:35.133Z,424
2019-04-27T10:41:37.503Z,443
2019-04-27T10:42:39.872Z,452
2019-04-27T10:43:41.909Z,445
2019-04-27T10:44:44.330Z,439
2019-04-27T10:45:46.466Z,454
2019-04-27T10:46:48.864Z,438
2019-04-27T10:47:51.024Z,446
2019-04-27T10:48:53.372Z,456
2019-04-27T10:49:55.608Z,463
2019-04-27T10:50:57.923Z,441
2019-04-27T10:52:00.106Z,462
2019-04-27T10:53:02.385Z,451
2019-04-27T10:54:04.659Z,457
2019-04-27T10:55:07.937Z,449
2019-04-27T10:56:10.766Z,432
2019-04-27T10:57:11.562Z,432
2019-04-27T10:58:13.773Z,450
2019-04-27T10:59:16.137Z,442
2019-04-27T11:00:18.464Z,440
2019-04-27T11:01:20.713Z,445
2019-04-27T11:02:22.935Z,462
2019-04-27T11:03:25.237Z,452
2019-04-27T11:04:27.651Z,443
2019-04-27T11:05:29.818Z,437
2019-04-27T11:06:32.026Z,428
2019-04-27T11:07:34.303Z,435
2019-04-27T11:08:36.581Z,435
2019-04-27T11:09:38.871Z,464
2019-04-27T11:10:41.128Z,444
2019-04-27T11:11:43.404Z,452
2019-04-27T11:12:45.707Z,435
2019-04-27T11:13:48.082Z,438
2019-04-27T11:14:50.323Z,474
2019-04-27T11:15:52.493Z,450
2019-04-27T11:16:54.797Z,437
2019-04-27T11:17:57.069Z,444
2019-04-27T11:19:01.863Z,434
2019-04-27T11:20:01.596Z,438
2019-04-27T11:21:03.915Z,480
2019-04-27T11:22:06.142Z,458
2019-04-27T11:23:08.431Z,458
2019-04-27T11:24:10.687Z,440
2019-04-27T11:25:16.049Z,413
2019-04-27T11:26:15.255Z,470
2019-04-27T11:27:17.584Z,452
2019-04-27T11:28:19.778Z,436
2019-04-27T11:29:22.050Z,451
2019-04-27T11:30:24.319Z,440
2019-04-27T11:31:26.617Z,475
2019-04-27T11:32:28.862Z,459
2019-04-27T11:33:31.141Z,443
2019-04-27T11:34:33.513Z,438
2019-04-27T11:35:35.694Z,461
2019-04-27T11:36:37.963Z,451
2019-04-27T11:37:40.236Z,480
2019-04-27T11:38:42.517Z,442
2019-04-27T11:39:44.903Z,448
2019-04-27T11:40:47.111Z,445
2019-04-27T11:41:49.326Z,441
2019-04-27T11:42:51.628Z,428
2019-04-27T11:43:53.892Z,451
2019-04-27T11:44:56.149Z,468
2019-04-27T11:45:58.428Z,457
2019-04-27T11:47:00.763Z,445
2019-04-27T11:48:03.003Z,450
2019-04-27T11:49:05.318Z,467
2019-04-27T11:50:07.611Z,464
2019-04-27T11:51:09.825Z,456
2019-04-27T11:52:12.117Z,459
2019-04-27T11:53:14.693Z,459
2019-04-27T11:54:16.620Z,445
2019-04-27T11:55:18.896Z,453
2019-04-27T11:57:25.965Z,458
2019-04-27T11:58:25.705Z,442
2019-04-27T11:59:28.089Z,447
2019-04-27T12:00:30.573Z,453
2019-04-27T12:01:32.632Z,451
2019-04-27T12:02:34.912Z,441
2019-04-27T12:03:41.080Z,441
2019-04-27T12:04:39.472Z,441
2019-04-27T12:05:41.744Z,443
2019-04-27T12:06:44.006Z,430
2019-04-27T12:07:46.357Z,462
2019-04-27T12:08:48.791Z,453
2019-04-27T12:09:50.827Z,502
2019-04-27T12:10:53.087Z,439
2019-04-27T12:11:55.418Z,442
2019-04-27T12:12:57.640Z,464
2019-04-27T12:13:59.926Z,444
2019-04-27T12:15:02.202Z,427
2019-04-27T12:16:04.462Z,487
2019-04-27T12:17:06.856Z,428
2019-04-27T12:18:09.024Z,436
2019-04-27T12:19:11.352Z,513
2019-04-27T12:20:13.566Z,432
2019-04-27T12:21:15.828Z,441
2019-04-27T12:22:18.112Z,444
2019-04-27T12:23:20.478Z,449
2019-04-27T12:24:22.679Z,466
2019-04-27T12:25:25.130Z,447
2019-04-27T12:26:27.250Z,442
2019-04-27T12:27:29.468Z,442
2019-04-27T12:28:31.753Z,449
2019-04-27T12:29:34.148Z,444
2019-04-27T12:30:36.334Z,364
2019-04-27T12:31:38.637Z,469
2019-04-27T12:32:40.850Z,422
2019-04-27T12:33:43.111Z,479
2019-04-27T12:34:45.433Z,471
2019-04-27T12:35:47.703Z,453
2019-04-27T12:36:49.941Z,444
2019-04-27T12:37:52.233Z,464
2019-04-27T12:38:54.500Z,445
2019-04-27T12:39:56.759Z,430
2019-04-27T12:40:59.173Z,447
2019-04-27T12:42:01.373Z,437
2019-04-27T12:43:03.661Z,483
2019-04-27T12:44:06.055Z,452
2019-04-27T12:45:08.167Z,444
2019-04-27T12:46:10.412Z,444
2019-04-27T12:47:12.784Z,440
2019-04-27T12:48:14.951Z,442
2019-04-27T12:49:17.222Z,418
2019-04-27T12:50:19.503Z,443
2019-04-27T12:51:21.799Z,430
2019-04-27T12:52:24.052Z,440
2019-04-27T12:53:26.319Z,452
2019-04-27T12:54:28.591Z,448
2019-04-27T12:55:31.910Z,457
2019-04-27T12:56:33.186Z,446
2019-04-27T12:57:35.448Z,440
2019-04-27T12:58:37.678Z,446
2019-04-27T12:59:40.014Z,450
2019-04-27T13:00:42.333Z,441
2019-04-27T13:01:44.592Z,438
2019-04-27T13:02:46.878Z,443
2019-04-27T13:03:49.150Z,503
2019-04-27T13:04:51.502Z,429
2019-04-27T13:05:53.736Z,445
2019-04-27T13:09:00.613Z,447
2019-04-27T13:10:02.803Z,444
2019-04-27T13:11:05.093Z,457
2019-04-27T13:12:07.398Z,459
2019-04-27T13:13:09.653Z,456
2019-04-27T13:14:11.947Z,447
2019-04-27T13:15:14.473Z,444
2019-04-27T13:16:16.508Z,446
2019-04-27T13:17:18.703Z,456
2019-04-27T13:18:20.976Z,448
2019-04-27T13:19:23.259Z,481
2019-04-27T13:20:25.548Z,452
2019-04-27T13:21:27.851Z,451
2019-04-27T13:22:34.237Z,466
2019-04-27T13:23:32.461Z,464
2019-04-27T13:24:34.819Z,447
2019-04-27T13:25:37.168Z,489
2019-04-27T13:26:39.170Z,455
2019-04-27T13:27:41.605Z,457
2019-04-27T13:28:43.854Z,473
2019-04-27T13:29:46.008Z,455
2019-04-27T13:30:48.265Z,440
2019-04-27T13:31:50.584Z,457
2019-04-27T13:32:52.916Z,455
2019-04-27T13:33:55.083Z,440
2019-04-27T13:34:57.371Z,458
2019-04-27T13:35:59.662Z,447
2019-04-27T13:37:01.903Z,468
2019-04-27T13:38:04.183Z,469
2019-04-27T13:39:06.523Z,465
2019-04-27T13:40:08.758Z,457
2019-04-27T13:41:11.083Z,461
2019-04-27T13:42:13.267Z,459
2019-04-27T13:43:15.568Z,460
2019-04-27T13:44:17.810Z,462
2019-04-27T13:45:20.182Z,452
2019-04-27T13:46:22.384Z,459
2019-04-27T13:47:24.641Z,453
2019-04-27T13:48:26.959Z,463
2019-04-27T13:49:29.193Z,457
2019-04-27T13:50:31.493Z,448
2019-04-27T13:51:33.729Z,482
2019-04-27T13:52:36.037Z,458
2019-04-27T13:53:38.404Z,452
2019-04-27T13:54:40.568Z,459
2019-04-27T13:55:42.996Z,461
2019-04-27T13:56:45.122Z,424
2019-04-27T13:57:47.383Z,449
2019-04-27T13:58:49.728Z,428
2019-04-27T13:59:51.961Z,467
2019-04-27T14:00:54.200Z,442
2019-04-27T14:01:56.641Z,456
2019-04-27T14:02:58.754Z,456
2019-04-27T14:04:01.029Z,453
2019-04-27T14:05:03.343Z,462
2019-04-27T14:06:05.691Z,450
2019-04-27T14:07:07.966Z,472
2019-04-27T14:08:10.209Z,433
2019-04-27T14:09:12.497Z,465
2019-04-27T14:10:14.875Z,453
2019-04-27T14:11:17.117Z,461
2019-04-27T14:12:19.368Z,491
2019-04-27T14:13:21.712Z,482
2019-04-27T14:14:24.227Z,450
2019-04-27T14:15:26.386Z,460
2019-04-27T14:16:28.627Z,463
2019-04-27T14:17:30.847Z,418
2019-04-27T14:18:33.106Z,452
2019-04-27T14:19:35.486Z,455
2019-04-27T14:20:37.758Z,459
2019-04-27T14:21:39.965Z,456
2019-04-27T14:22:42.198Z,452
2019-04-27T14:23:44.426Z,440
2019-04-27T14:24:46.687Z,446
2019-04-27T14:25:48.970Z,427
2019-04-27T14:26:51.315Z,453
2019-04-27T14:27:53.517Z,459
2019-04-27T14:28:55.786Z,458
2019-04-27T14:29:58.151Z,451
2019-04-27T14:31:00.338Z,459
2019-04-27T14:32:03.813Z,451
2019-04-27T14:33:04.933Z,453